Denver, MO

2:27 PM CST on March 03, 2015 (GMT -0600)
Bethany | Change Station
CLOSE
Current Station
Personal Weather Station
Location: Bethany, MO
Elevation: 1017 ft
Nearby Weather Stations

Elev 1017 ft 40.33 °N, 94.03 °W | Updated 0 second ago

Overcast
Overcast
36.4 °F
Feels Like 32 °F
N
5.0
Wind Variable Wind from NNW
Gusts 13.0 mph

Today
High -- | Low -- °F
--% Chance of Precip.
Yesterday
High -- | Low -- °F
Precip. -- in
6:48 AM 6:10 PM
Waxing Gibbous, 97% visible
Pressure 29.78 in
Visibility 9.0 miles
Clouds Overcast 1700 ft
Windchill 32 °F
Dew Point 32 °F
Humidity 84%
Rainfall 0.00 in
Snow Depth Not available.
UV 1 out of 12
Pollen 2.90 out of 12
Air Quality Not available.
Flu Activity Not available.
SPECI KLWD 032007Z AUTO 32017KT 9SM OVC017 01/M02 A2978 RMK AO2 T00111017

More Conditions Fewer Conditions

Pressure 29.78 in
Visibility 9.0 miles
Clouds Overcast 1700 ft
Windchill 32 °F
Dew Point 32 °F
Humidity 84%
Rainfall 0.00 in
Snow Depth Not available.
UV 1 out of 12
Pollen 2.90 out of 12
Air Quality Not available.
Flu Activity Not available.
SPECI KLWD 032007Z AUTO 32017KT 9SM OVC017 01/M02 A2978 RMK AO2 T00111017

More Conditions Fewer Conditions

10-Day Weather Forecast

Almanac

Astronomy

Mar. 03, 2015 Rise Set
Actual Time
Civil Twilight
Nautical Twilight
Astronomical Twilight
Moon
Length of Visible Light
Length of Day
Tomorrow will be .
, % of the Moon is Illuminated

Today's Extremes

State Highs State Lows

Community

WunderPhotos

Upload Photos

1,802,245 photos uploaded!

WunderBlogs® & News

Nearby

Air Quality

  Air Quality AQ Index Pollutant
Not available.

Snow Depth

Station Depth Elevation

Earthquake Activity

City Distance Mag. Time & Date
Minimum magnitude displayed is 2.5.

Coastal Water Temperatures

Place Temperature

Nearby Weather Stations